メインページ
METAR-TAF:

METAR-TAF

空港 :

ハールク島, イラン

緯度: 29-15-34N, 経度: 50-19-24E, 海抜: 5m

現時点の気象観測

当レポートは18分前の03:30(UTC)に作成
東/南東の風 18kt
気温 22°C
湿度 78%
気圧 1003 hPa
視程: 7000m
高度3000ftの雲はほとんどない, 積乱雲.
高度4000ftの雲は散在している
高度9000ftの曇り

METAR: OIBQ 250330Z 11018KT 7000 FEW030CB SCT040 OVC090 22/18 Q1003

時間: 08:18 (03:48 UTC)


TAF: 見つかりません

4,000以上の空港の気象観測と天気予報(METAR報とTAF報)

利用可能な観測所は地図上に黄色い丸と赤い丸で示す。

丸の上にカーソルを重ねると観測所名を参照できる。

次にクリックすると気象観測と天気予報を参照できる。

マップの切り替え:黒色「×」印の緑ボタンをクリックして拡大、「-」印の緑ボタンをクリックして縮小、緑色の三角印をクリックして隣りの地図に切り替え


METAR-TAF: